Time;durP1;ratioP1;P1;durP2;ratioP2;P2;SDS_P1;SDS_P2;PMS_P1;PMS_P2;Temp;Humidity;BMP_temperature;BMP_pressure;BME280_temperature;BME280_humidity;BME280_pressure;Samples;Min_cycle;Max_cycle;Signal;HPM_P1;HPM_P2
2023/05/13 00:01:41;;;;;;;12.90;5.50;;;;;;;11.82;58.90;100533.94;105471;1260;69884;-71
2023/05/13 00:04:08;;;;;;;8.30;5.30;;;;;;;11.77;59.23;100533.11;105354;1260;73043;-72
2023/05/13 00:06:34;;;;;;;8.90;5.30;;;;;;;11.73;59.41;100538.67;105444;1260;61332;-72
2023/05/13 00:09:02;;;;;;;11.50;4.90;;;;;;;11.70;59.53;100537.12;105394;1260;59622;-73
2023/05/13 00:11:29;;;;;;;8.30;5.60;;;;;;;11.67;59.40;100538.10;105349;1265;73329;-70
2023/05/13 00:13:56;;;;;;;9.70;5.60;;;;;;;11.62;59.60;100538.92;105451;1264;70857;-72
2023/05/13 00:16:26;;;;;;;8.90;5.10;;;;;;;11.59;59.73;100541.02;105398;1260;72488;-71
2023/05/13 00:18:54;;;;;;;7.70;4.90;;;;;;;11.56;60.05;100542.34;105864;1253;62913;-74
2023/05/13 00:21:21;;;;;;;6.30;5.00;;;;;;;11.55;59.76;100541.91;105900;1260;62635;-76
2023/05/13 00:23:48;;;;;;;9.50;4.90;;;;;;;11.55;59.89;100541.55;105856;1253;75136;-74
2023/05/13 00:26:15;;;;;;;7.60;5.30;;;;;;;11.56;59.91;100541.54;105755;1253;71606;-73
2023/05/13 00:28:43;;;;;;;8.00;4.60;;;;;;;11.55;60.40;100538.71;105934;1254;74679;-74
2023/05/13 00:31:10;;;;;;;10.90;4.20;;;;;;;11.56;60.24;100541.84;105889;1254;62768;-74
2023/05/13 00:33:37;;;;;;;9.00;5.00;;;;;;;11.55;60.35;100536.05;105831;1253;59536;-73
2023/05/13 00:36:05;;;;;;;9.20;5.00;;;;;;;11.57;60.73;100540.70;105864;1255;75073;-75
2023/05/13 00:38:32;;;;;;;8.00;5.30;;;;;;;11.56;60.61;100537.25;105924;1258;72629;-74
2023/05/13 00:40:59;;;;;;;8.20;5.00;;;;;;;11.55;60.55;100536.79;106056;1257;71033;-75
2023/05/13 00:43:26;;;;;;;7.80;4.30;;;;;;;11.54;60.86;100538.47;105915;1256;62062;-71
2023/05/13 00:45:53;;;;;;;5.70;4.80;;;;;;;11.54;61.36;100535.27;105942;1254;62261;-72
2023/05/13 00:48:20;;;;;;;5.90;3.90;;;;;;;11.54;61.49;100539.00;105664;1258;73098;-73
2023/05/13 00:50:47;;;;;;;6.70;4.10;;;;;;;11.54;61.56;100541.13;105864;1258;72637;-72
2023/05/13 00:53:14;;;;;;;6.40;4.10;;;;;;;11.55;62.00;100540.57;105766;1259;72544;-74
2023/05/13 00:55:44;;;;;;;6.20;3.90;;;;;;;11.54;62.11;100541.30;105668;1261;60525;-72
2023/05/13 00:58:12;;;;;;;7.40;4.10;;;;;;;11.55;62.20;100538.91;105810;1258;60915;-73
2023/05/13 01:01:16;;;;;;;7.10;3.90;;;;;;;11.55;62.28;100539.80;105694;1260;75009;-74
2023/05/13 01:04:19;;;;;;;6.80;4.10;;;;;;;11.55;62.65;100535.31;105893;1256;70460;-75
2023/05/13 01:07:01;;;;;;;7.30;4.00;;;;;;;11.55;63.04;100537.33;105725;1256;74763;-74
2023/05/13 01:09:53;;;;;;;9.70;3.90;;;;;;;11.54;62.83;100537.74;105870;1256;61254;-73
2023/05/13 01:12:34;;;;;;;7.90;4.50;;;;;;;11.54;63.08;100538.00;105685;1255;59716;-75
2023/05/13 01:15:11;;;;;;;6.40;3.90;;;;;;;11.53;63.04;100536.17;105934;1258;75101;-72
2023/05/13 01:17:59;;;;;;;6.40;4.10;;;;;;;11.49;63.63;100538.98;105811;1254;70829;-73
2023/05/13 01:20:26;;;;;;;6.90;4.60;;;;;;;11.45;63.99;100536.94;105873;1254;74703;-71
2023/05/13 01:22:53;;;;;;;7.70;4.50;;;;;;;11.41;64.15;100536.27;105889;1254;62189;-72
2023/05/13 01:25:20;;;;;;;7.70;4.20;;;;;;;11.37;64.19;100538.67;105809;1254;60927;-73
2023/05/13 01:27:47;;;;;;;7.20;4.20;;;;;;;11.32;64.30;100537.55;105950;1256;74593;-77
2023/05/13 01:30:15;;;;;;;6.20;4.20;;;;;;;11.28;64.69;100539.22;105827;1254;72910;-75
2023/05/13 01:32:42;;;;;;;6.90;4.40;;;;;;;11.21;64.93;100539.46;105906;1257;73143;-73
2023/05/13 01:35:09;;;;;;;6.50;4.00;;;;;;;11.13;65.12;100538.16;105748;1254;63114;-74
2023/05/13 01:37:38;;;;;;;7.40;4.70;;;;;;;11.04;65.46;100542.04;105909;1259;64247;-73
2023/05/13 01:40:06;;;;;;;11.60;4.90;;;;;;;10.97;65.39;100542.59;105731;1259;73331;-73
2023/05/13 01:42:46;;;;;;;8.40;5.40;;;;;;;10.93;65.71;100541.95;105703;1254;72058;-72
2023/05/13 01:45:13;;;;;;;8.50;4.40;;;;;;;10.91;66.02;100540.04;105766;1261;74631;-74
2023/05/13 01:47:40;;;;;;;8.20;4.30;;;;;;;10.90;66.05;100539.01;105687;1255;61321;-76
2023/05/13 01:50:07;;;;;;;5.40;4.30;;;;;;;10.91;65.55;100541.56;105682;1254;60394;-74
2023/05/13 01:52:34;;;;;;;5.60;4.30;;;;;;;10.92;65.41;100540.09;105891;1254;74987;-74
2023/05/13 01:55:01;;;;;;;6.30;4.00;;;;;;;10.93;65.17;100542.39;105932;1254;72720;-73
2023/05/13 01:57:29;;;;;;;6.50;4.30;;;;;;;10.96;64.70;100541.98;105757;1256;73339;-74
2023/05/13 01:59:56;;;;;;;6.30;4.00;;;;;;;10.98;64.47;100543.30;105756;1256;63038;-73
2023/05/13 02:02:23;;;;;;;5.90;4.30;;;;;;;11.00;64.41;100545.06;105856;1254;62312;-74
2023/05/13 02:04:50;;;;;;;6.90;4.30;;;;;;;11.00;64.48;100543.16;105831;1253;73777;-75
2023/05/13 02:07:17;;;;;;;7.60;4.00;;;;;;;11.00;64.49;100542.99;105725;1254;71750;-74
2023/05/13 02:09:44;;;;;;;7.20;4.30;;;;;;;10.99;64.54;100546.10;105868;1257;73995;-76
2023/05/13 02:12:11;;;;;;;6.40;3.90;;;;;;;10.97;64.83;100547.40;105721;1259;62508;-74
2023/05/13 02:14:38;;;;;;;5.40;4.30;;;;;;;10.95;64.72;100547.23;105711;1254;61282;-73
2023/05/13 02:17:05;;;;;;;6.70;3.90;;;;;;;10.93;65.04;100552.23;105780;1254;75293;-74
2023/05/13 02:19:32;;;;;;;5.90;4.10;;;;;;;10.91;64.97;100553.94;105630;1255;71900;-76
2023/05/13 02:21:58;;;;;;;8.20;4.90;;;;;;;10.87;65.46;100549.54;105677;1254;71302;-72
2023/05/13 02:24:25;;;;;;;5.50;4.20;;;;;;;10.83;65.32;100554.59;105651;1256;61326;-73
2023/05/13 02:26:53;;;;;;;6.00;4.50;;;;;;;10.79;65.71;100549.16;105666;1254;62230;-71
2023/05/13 02:29:20;;;;;;;7.30;4.80;;;;;;;10.75;65.84;100550.95;105852;1254;71479;-72
2023/05/13 02:31:46;;;;;;;6.60;4.10;;;;;;;10.72;66.00;100553.17;105605;1256;72838;-72
2023/05/13 02:34:13;;;;;;;8.60;5.00;;;;;;;10.69;66.15;100552.74;105682;1254;74640;-71
2023/05/13 02:36:40;;;;;;;7.60;3.90;;;;;;;10.67;66.44;100553.28;105626;1260;62363;-72
2023/05/13 02:39:07;;;;;;;5.80;4.40;;;;;;;10.65;66.52;100556.52;105729;1256;62076;-75
2023/05/13 02:41:35;;;;;;;6.10;4.50;;;;;;;10.64;66.41;100556.04;105889;1254;74046;-73
2023/05/13 02:44:02;;;;;;;5.80;4.60;;;;;;;10.64;66.61;100559.80;105797;1259;68281;-77
2023/05/13 02:46:29;;;;;;;6.00;4.50;;;;;;;10.63;66.77;100559.47;105699;1256;74004;-76
2023/05/13 02:48:56;;;;;;;7.10;4.40;;;;;;;10.64;66.58;100562.41;105656;1256;62264;-73
2023/05/13 02:51:23;;;;;;;6.60;4.00;;;;;;;10.74;66.43;100562.86;105992;1254;61235;-74
2023/05/13 02:53:50;;;;;;;5.40;3.90;;;;;;;10.87;66.26;100564.88;105956;1255;73030;-73
2023/05/13 02:56:17;;;;;;;8.30;4.20;;;;;;;10.90;66.47;100566.12;105790;1256;71951;-75
2023/05/13 02:58:44;;;;;;;6.00;4.50;;;;;;;10.92;67.04;100568.23;105861;1255;73794;-74
2023/05/13 03:01:11;;;;;;;5.90;4.20;;;;;;;10.95;66.86;100569.39;105647;1258;60938;-74
2023/05/13 03:03:38;;;;;;;6.40;4.20;;;;;;;10.99;66.66;100568.96;105725;1254;62352;-76
2023/05/13 03:06:05;;;;;;;8.90;4.50;;;;;;;11.01;66.95;100575.15;105648;1255;73851;-74
2023/05/13 03:08:32;;;;;;;17.70;5.00;;;;;;;11.01;66.72;100570.92;105721;1255;72332;-74
2023/05/13 03:11:00;;;;;;;6.70;4.30;;;;;;;11.01;66.96;100571.45;105644;1260;74320;-77
2023/05/13 03:13:27;;;;;;;6.50;4.50;;;;;;;11.00;66.80;100575.77;105744;1260;62301;-76
2023/05/13 03:15:55;;;;;;;6.30;4.60;;;;;;;11.02;66.98;100576.69;105740;1258;62665;-75
2023/05/13 03:18:22;;;;;;;7.70;4.50;;;;;;;11.04;66.90;100576.80;105715;1254;74489;-75
2023/05/13 03:20:49;;;;;;;7.00;4.30;;;;;;;11.08;66.39;100577.64;105910;1253;70434;-76
2023/05/13 03:23:17;;;;;;;7.60;4.50;;;;;;;11.13;65.41;100577.16;105691;1258;71304;-76
2023/05/13 03:25:44;;;;;;;7.00;4.50;;;;;;;11.19;64.89;100578.67;105853;1256;62926;-78
2023/05/13 03:28:11;;;;;;;5.90;4.30;;;;;;;11.26;64.86;100582.83;105878;1254;59646;-74
2023/05/13 03:30:42;;;;;;;8.80;4.40;;;;;;;11.33;64.72;100584.77;107446;1256;73076;-73
2023/05/13 03:33:16;;;;;;;6.50;4.90;;;;;;;11.42;64.40;100586.58;107623;1255;72908;-75
2023/05/13 03:35:44;;;;;;;7.30;4.90;;;;;;;11.49;64.43;100589.02;106256;1255;74499;-76
2023/05/13 03:38:11;;;;;;;6.40;4.10;;;;;;;11.56;64.51;100584.89;105660;1255;62394;-76
2023/05/13 03:40:41;;;;;;;7.30;4.80;;;;;;;11.65;64.41;100591.14;105661;1258;62263;-74
2023/05/13 03:43:08;;;;;;;6.40;4.60;;;;;;;11.71;64.25;100585.94;105615;1254;73691;-75
2023/05/13 03:45:35;;;;;;;7.70;5.20;;;;;;;11.77;63.90;100591.70;105707;1254;71696;-75
2023/05/13 03:48:05;;;;;;;8.30;4.70;;;;;;;11.84;63.95;100599.34;106111;1259;74875;-75
2023/05/13 03:50:32;;;;;;;7.50;4.50;;;;;;;11.92;63.68;100601.10;105767;1256;60784;-74
2023/05/13 03:52:59;;;;;;;7.00;5.00;;;;;;;12.00;63.63;100598.52;105741;1261;61516;-74
2023/05/13 03:55:26;;;;;;;10.60;5.40;;;;;;;12.08;63.27;100602.33;105817;1256;74575;-75
2023/05/13 03:57:53;;;;;;;7.40;4.40;;;;;;;12.15;62.97;100601.75;105926;1259;71074;-74
2023/05/13 04:00:20;;;;;;;7.00;5.20;;;;;;;12.22;62.69;100605.28;105710;1260;72742;-74
2023/05/13 04:02:47;;;;;;;6.30;4.50;;;;;;;12.30;62.44;100607.70;105848;1258;61280;-73
2023/05/13 04:05:16;;;;;;;9.10;5.30;;;;;;;12.37;62.38;100609.27;105894;1253;62089;-74
2023/05/13 04:07:45;;;;;;;7.70;5.10;;;;;;;12.47;62.10;100609.84;105690;1254;76141;-73
2023/05/13 04:10:12;;;;;;;10.40;5.10;;;;;;;12.57;61.81;100611.32;105783;1253;70468;-75
2023/05/13 04:12:41;;;;;;;8.70;5.20;;;;;;;12.68;61.62;100610.90;105939;1253;73483;-74
2023/05/13 04:15:08;;;;;;;9.50;5.50;;;;;;;12.81;61.50;100614.45;105759;1259;60567;-72
2023/05/13 04:17:35;;;;;;;9.90;5.70;;;;;;;12.97;61.08;100615.83;105673;1253;62307;-74
2023/05/13 04:20:06;;;;;;;8.60;5.40;;;;;;;13.13;60.64;100614.85;105826;1253;73313;-75
2023/05/13 04:22:33;;;;;;;6.70;5.40;;;;;;;13.29;60.37;100617.02;105691;1253;71963;-75
2023/05/13 04:25:00;;;;;;;9.30;6.70;;;;;;;13.44;60.09;100616.33;105832;1261;71566;-75
2023/05/13 04:27:27;;;;;;;11.10;6.10;;;;;;;13.60;59.77;100618.54;105741;1261;60474;-73
2023/05/13 04:30:00;;;;;;;11.40;6.80;;;;;;;13.76;59.28;100622.48;105844;1253;61674;-75
2023/05/13 04:32:30;;;;;;;11.00;6.50;;;;;;;13.92;58.88;100620.96;105821;1253;75900;-74
2023/05/13 04:34:57;;;;;;;10.40;6.00;;;;;;;14.05;58.24;100628.40;105694;1253;72662;-74
2023/05/13 04:37:25;;;;;;;8.00;5.90;;;;;;;14.18;57.55;100627.34;105705;1256;73582;-73
2023/05/13 04:39:55;;;;;;;8.50;5.30;;;;;;;14.30;57.14;100628.68;105654;1262;61308;-75
2023/05/13 04:42:23;;;;;;;10.10;5.80;;;;;;;14.39;56.95;100628.59;105658;1254;62230;-74
2023/05/13 04:44:49;;;;;;;7.60;5.30;;;;;;;14.51;56.76;100628.70;105716;1261;76224;-74
2023/05/13 04:47:17;;;;;;;11.60;6.20;;;;;;;14.62;56.50;100628.89;105950;1256;71338;-74
2023/05/13 04:49:44;;;;;;;8.40;6.20;;;;;;;14.72;56.59;100631.85;105881;1253;72948;-74
2023/05/13 04:52:12;;;;;;;12.30;5.90;;;;;;;14.82;56.25;100629.38;105665;1256;63866;-74
2023/05/13 04:54:39;;;;;;;17.40;6.20;;;;;;;14.93;55.97;100632.40;105776;1253;62106;-73
2023/05/13 04:57:06;;;;;;;7.50;5.50;;;;;;;15.06;55.75;100634.73;105858;1253;75978;-73
2023/05/13 04:59:34;;;;;;;12.60;5.60;;;;;;;15.22;55.09;100636.65;105658;1253;72263;-74
2023/05/13 05:02:01;;;;;;;9.50;5.30;;;;;;;15.39;54.75;100633.50;105908;1254;73410;-76
2023/05/13 05:04:28;;;;;;;7.10;4.50;;;;;;;15.54;53.96;100630.88;105590;1260;61002;-75
2023/05/13 05:06:56;;;;;;;9.10;4.40;;;;;;;15.65;53.13;100628.69;105706;1254;62073;-75
2023/05/13 05:09:22;;;;;;;9.00;4.60;;;;;;;15.73;52.78;100629.51;105655;1253;74668;-76
2023/05/13 05:11:51;;;;;;;7.00;5.70;;;;;;;15.82;52.54;100630.46;105830;1261;71273;-75
2023/05/13 05:14:19;;;;;;;6.10;4.30;;;;;;;15.91;52.08;100628.14;105804;1259;74829;-73
2023/05/13 05:16:48;;;;;;;6.70;4.10;;;;;;;15.98;51.72;100628.62;106052;1254;61469;-74
2023/05/13 05:19:15;;;;;;;6.70;3.90;;;;;;;16.04;51.35;100625.57;105955;1254;62457;-74
2023/05/13 05:21:42;;;;;;;4.60;3.60;;;;;;;16.11;51.15;100629.77;105966;1258;74500;-74
2023/05/13 05:24:09;;;;;;;5.30;3.80;;;;;;;16.19;50.89;100628.60;106096;1259;72387;-73
2023/05/13 05:26:36;;;;;;;3.80;3.40;;;;;;;16.25;50.65;100628.20;106084;1253;73544;-74
2023/05/13 05:29:04;;;;;;;6.40;3.80;;;;;;;16.33;50.56;100627.45;106089;1258;61093;-76
2023/05/13 05:31:31;;;;;;;5.20;3.30;;;;;;;16.43;50.45;100628.74;106210;1258;62531;-76
2023/05/13 05:34:00;;;;;;;9.50;4.80;;;;;;;16.55;50.46;100629.13;105756;1261;72591;-77
2023/05/13 05:36:28;;;;;;;6.20;4.10;;;;;;;16.65;50.48;100632.02;105805;1258;71043;-71
2023/05/13 05:38:54;;;;;;;8.00;3.60;;;;;;;16.75;50.43;100629.09;105879;1256;71574;-72
2023/05/13 05:41:28;;;;;;;5.20;3.20;;;;;;;16.86;49.98;100627.98;105859;1254;60803;-70
2023/05/13 05:43:55;;;;;;;6.10;3.30;;;;;;;16.95;49.40;100628.26;105784;1254;62141;-72
2023/05/13 05:46:22;;;;;;;5.70;2.90;;;;;;;17.05;48.87;100626.83;105755;1259;75776;-70
2023/05/13 05:48:49;;;;;;;4.90;3.20;;;;;;;17.14;48.28;100628.46;105675;1253;72450;-71
2023/05/13 05:51:16;;;;;;;4.30;2.70;;;;;;;17.21;47.86;100626.31;105731;1257;73095;-72
2023/05/13 05:53:43;;;;;;;6.60;2.80;;;;;;;17.28;47.39;100625.20;105409;1253;60479;-71
2023/05/13 05:56:11;;;;;;;3.50;2.70;;;;;;;17.36;47.19;100628.34;106037;1253;62131;-72
2023/05/13 05:58:38;;;;;;;5.70;2.70;;;;;;;17.45;47.04;100630.79;105750;1253;72774;-74
2023/05/13 06:01:05;;;;;;;4.10;3.20;;;;;;;17.55;47.12;100630.38;105767;1254;72691;-71
2023/05/13 06:03:32;;;;;;;5.70;2.60;;;;;;;17.64;47.01;100630.75;105903;1254;71210;-73
2023/05/13 06:05:59;;;;;;;4.30;2.70;;;;;;;17.73;46.71;100630.99;105899;1256;61243;-71
2023/05/13 06:08:29;;;;;;;6.30;2.90;;;;;;;17.82;46.80;100628.89;105925;1253;62294;-69
2023/05/13 06:10:57;;;;;;;3.70;3.10;;;;;;;17.92;46.75;100630.40;105731;1253;75920;-70
2023/05/13 06:13:25;;;;;;;4.60;3.00;;;;;;;18.01;46.67;100632.17;105602;1253;71217;-72
2023/05/13 06:15:51;;;;;;;5.10;2.80;;;;;;;18.10;46.15;100630.83;105693;1257;75007;-72
2023/05/13 06:18:18;;;;;;;5.90;3.20;;;;;;;18.17;45.25;100633.60;105651;1260;62532;-70
2023/05/13 06:20:46;;;;;;;5.10;2.90;;;;;;;18.17;44.83;100637.95;105620;1253;60918;-72
2023/05/13 06:23:13;;;;;;;5.00;3.20;;;;;;;18.16;44.77;100635.34;105763;1258;74689;-71
2023/05/13 06:25:41;;;;;;;3.90;3.10;;;;;;;18.16;44.89;100638.94;105865;1253;72893;-71
2023/05/13 06:28:09;;;;;;;4.20;3.00;;;;;;;18.18;45.10;100636.42;105705;1259;74800;-71
2023/05/13 06:30:37;;;;;;;6.30;3.40;;;;;;;18.24;45.01;100635.07;105736;1258;61450;-72
2023/05/13 06:33:04;;;;;;;4.10;3.30;;;;;;;18.33;45.13;100636.35;105677;1260;60928;-73
2023/05/13 06:35:31;;;;;;;5.20;3.30;;;;;;;18.38;45.18;100635.98;105785;1258;74834;-72
2023/05/13 06:38:01;;;;;;;5.90;3.80;;;;;;;18.43;45.29;100639.08;105656;1260;72272;-71
2023/05/13 06:40:28;;;;;;;8.30;3.70;;;;;;;18.49;45.14;100637.75;105379;1255;74117;-68
2023/05/13 06:42:55;;;;;;;6.20;3.70;;;;;;;18.54;45.27;100637.89;105300;1262;60506;-70
2023/05/13 06:45:27;;;;;;;10.50;3.50;;;;;;;18.59;45.34;100635.31;105377;1259;61727;-72
2023/05/13 06:47:55;;;;;;;5.90;3.70;;;;;;;18.61;45.25;100636.20;105867;1254;74823;-71
2023/05/13 06:50:22;;;;;;;6.30;3.10;;;;;;;18.65;45.11;100637.92;105732;1258;70117;-69
2023/05/13 06:52:49;;;;;;;6.80;4.30;;;;;;;18.68;45.14;100638.80;105700;1260;74795;-70
2023/05/13 06:55:17;;;;;;;6.50;4.00;;;;;;;18.73;45.03;100641.17;105784;1253;62648;-70
2023/05/13 06:57:45;;;;;;;6.90;3.70;;;;;;;18.78;44.96;100641.41;105648;1261;60526;-69
2023/05/13 07:00:13;;;;;;;6.10;3.90;;;;;;;18.83;44.83;100638.27;105444;1256;75016;-70
2023/05/13 07:02:40;;;;;;;5.60;4.10;;;;;;;18.87;44.81;100639.90;105744;1256;71749;-69
2023/05/13 07:05:08;;;;;;;9.40;3.70;;;;;;;18.87;44.61;100640.27;105805;1254;74632;-71
2023/05/13 07:07:37;;;;;;;5.10;3.40;;;;;;;18.84;44.49;100638.23;105727;1274;60391;-70
2023/05/13 07:10:04;;;;;;;4.70;4.00;;;;;;;18.86;44.62;100639.44;105817;1254;62210;-72
2023/05/13 07:12:31;;;;;;;5.90;3.60;;;;;;;18.90;44.57;100640.05;105789;1253;73340;-73
2023/05/13 07:14:58;;;;;;;4.30;3.20;;;;;;;18.95;44.54;100636.89;105757;1253;71076;-70
2023/05/13 07:17:25;;;;;;;6.10;3.70;;;;;;;19.02;44.54;100634.20;105968;1259;73600;-71
2023/05/13 07:19:53;;;;;;;6.30;4.00;;;;;;;19.08;44.61;100631.73;105959;1259;60446;-71
2023/05/13 07:22:21;;;;;;;5.20;3.00;;;;;;;19.17;44.76;100630.77;105893;1261;62669;-71
2023/05/13 07:24:48;;;;;;;4.70;3.40;;;;;;;19.25;43.98;100631.38;106025;1259;76205;-71
2023/05/13 07:27:15;;;;;;;6.10;3.60;;;;;;;19.28;43.29;100629.85;106023;1259;71310;-69
2023/05/13 07:29:42;;;;;;;4.50;3.20;;;;;;;19.30;43.46;100632.33;105786;1258;73655;-72
2023/05/13 07:32:09;;;;;;;3.40;3.00;;;;;;;19.33;43.57;100632.23;105878;1259;61958;-72
2023/05/13 07:34:36;;;;;;;8.90;3.30;;;;;;;19.42;43.12;100630.17;106576;1254;62131;-74
2023/05/13 07:37:04;;;;;;;3.50;3.00;;;;;;;19.50;42.65;100630.48;108279;1253;74649;-73
2023/05/13 07:39:30;;;;;;;3.90;3.10;;;;;;;19.56;42.24;100631.35;106570;1255;69098;-73
2023/05/13 07:41:57;;;;;;;9.70;3.20;;;;;;;19.61;41.73;100631.77;106231;1257;72922;-74
2023/05/13 07:44:24;;;;;;;4.80;2.90;;;;;;;19.68;41.21;100628.17;106375;1258;60402;-71
2023/05/13 07:46:52;;;;;;;5.30;3.30;;;;;;;19.76;41.34;100628.29;106166;1254;60444;-71
2023/05/13 07:49:20;;;;;;;8.20;3.60;;;;;;;19.86;41.61;100631.86;108660;1258;72502;-72
2023/05/13 07:51:46;;;;;;;3.30;3.00;;;;;;;19.93;41.81;100630.95;108601;1253;71186;-72
2023/05/13 07:54:13;;;;;;;4.70;3.10;;;;;;;19.99;41.76;100628.77;108425;1257;71234;-72
2023/05/13 07:56:42;;;;;;;6.40;3.60;;;;;;;20.08;41.60;100623.38;108222;1254;60319;-71
2023/05/13 07:59:10;;;;;;;4.50;3.60;;;;;;;20.13;41.52;100623.08;108622;1253;61232;-71
2023/05/13 08:01:37;;;;;;;3.50;3.00;;;;;;;20.19;41.14;100623.98;108230;1255;72874;-71
2023/05/13 08:04:04;;;;;;;6.10;3.20;;;;;;;20.25;40.43;100622.20;107809;1257;71327;-69
2023/05/13 08:06:31;;;;;;;5.20;3.60;;;;;;;20.27;40.52;100623.39;107909;1256;73569;-70
2023/05/13 08:08:58;;;;;;;4.30;3.40;;;;;;;20.32;40.37;100627.08;107854;1255;61593;-70
2023/05/13 08:11:26;;;;;;;8.00;3.80;;;;;;;20.38;40.06;100628.56;108324;1256;61216;-71
2023/05/13 08:13:53;;;;;;;4.40;3.10;;;;;;;20.41;40.10;100624.77;108802;1254;74756;-71
2023/05/13 08:16:20;;;;;;;4.60;3.00;;;;;;;20.46;40.10;100621.86;109186;1258;71282;-71
2023/05/13 08:18:47;;;;;;;5.90;3.10;;;;;;;20.56;39.94;100619.01;109134;1254;73864;-70
2023/05/13 08:21:14;;;;;;;3.90;2.90;;;;;;;20.68;39.83;100622.52;108437;1253;61399;-72
2023/05/13 08:23:41;;;;;;;4.50;3.10;;;;;;;20.80;39.75;100621.14;107934;1257;62494;-72
2023/05/13 08:26:12;;;;;;;4.70;2.60;;;;;;;20.94;39.41;100614.85;108264;1253;74724;-69
2023/05/13 08:28:39;;;;;;;5.30;2.80;;;;;;;21.10;39.35;100609.82;107631;1253;68818;-69
2023/05/13 08:31:12;;;;;;;4.10;2.70;;;;;;;21.29;39.16;100609.30;107745;1254;73687;-71
2023/05/13 08:33:44;;;;;;;3.60;2.60;;;;;;;21.47;39.29;100606.26;107580;1254;60761;-71
2023/05/13 08:36:11;;;;;;;6.70;3.50;;;;;;;21.65;39.19;100602.55;107376;1255;61179;-70
2023/05/13 08:38:38;;;;;;;6.70;3.20;;;;;;;21.84;39.17;100601.64;107915;1253;74972;-72
2023/05/13 08:41:05;;;;;;;7.00;3.20;;;;;;;21.99;39.06;100603.80;107275;1254;72463;-72
2023/05/13 08:43:32;;;;;;;4.60;3.00;;;;;;;22.10;38.71;100603.11;107315;1257;73301;-71
2023/05/13 08:46:02;;;;;;;4.40;2.60;;;;;;;22.22;38.03;100602.79;107147;1256;61122;-71
2023/05/13 08:48:30;;;;;;;4.20;2.90;;;;;;;22.36;37.73;100603.45;107207;1257;62349;-72
2023/05/13 08:50:57;;;;;;;2.90;2.60;;;;;;;22.44;37.44;100591.87;106954;1254;72966;-71
2023/05/13 08:53:25;;;;;;;5.10;3.20;;;;;;;22.53;37.45;100586.63;107555;1253;69192;-71
2023/05/13 08:55:52;;;;;;;4.30;2.80;;;;;;;22.70;37.12;100582.55;107646;1257;73360;-71
2023/05/13 08:58:19;;;;;;;3.10;2.30;;;;;;;22.92;36.37;100581.69;107710;1255;61251;-68
2023/05/13 09:00:48;;;;;;;6.30;2.60;;;;;;;23.16;35.85;100581.83;107345;1254;61158;-69
2023/05/13 09:03:15;;;;;;;3.50;2.70;;;;;;;23.42;35.49;100573.90;107254;1255;74666;-72
2023/05/13 09:05:45;;;;;;;4.30;2.90;;;;;;;23.70;35.00;100581.88;106588;1263;71462;-70
2023/05/13 09:08:12;;;;;;;3.60;2.50;;;;;;;23.98;34.67;100576.58;106137;1254;74970;-72
2023/05/13 09:10:39;;;;;;;5.50;2.20;;;;;;;24.22;34.08;100578.80;105885;1259;60600;-70
2023/05/13 09:13:06;;;;;;;3.80;2.40;;;;;;;24.44;33.64;100571.29;105941;1258;62848;-72
2023/05/13 09:15:34;;;;;;;2.70;2.30;;;;;;;24.66;33.31;100565.83;105910;1260;73098;-72
2023/05/13 09:18:04;;;;;;;3.20;2.20;;;;;;;25.01;33.15;100562.02;105876;1260;71242;-73
2023/05/13 09:20:32;;;;;;;3.10;2.50;;;;;;;25.59;32.98;100556.02;106032;1259;71878;-72
2023/05/13 09:23:04;;;;;;;3.90;2.20;;;;;;;26.31;32.00;100548.41;105887;1259;62022;-72
2023/05/13 09:25:31;;;;;;;;;;;;;;;27.01;30.95;100547.28;105845;1254;60521;-72
2023/05/13 09:28:02;;;;;;;3.10;2.10;;;;;;;27.46;30.44;100546.05;105934;1258;76064;-73
2023/05/13 09:30:32;;;;;;;3.10;2.10;;;;;;;27.72;29.86;100548.42;105862;1257;71219;-70
2023/05/13 09:33:03;;;;;;;2.70;2.20;;;;;;;27.76;29.18;100539.23;105991;1257;71486;-70
2023/05/13 09:35:31;;;;;;;2.30;2.10;;;;;;;27.77;28.89;100533.67;106271;1257;60540;-71
2023/05/13 09:37:58;;;;;;;3.30;2.40;;;;;;;27.97;28.97;100531.02;105926;1257;60563;-71
2023/05/13 09:40:24;;;;;;;4.40;2.50;;;;;;;28.43;28.58;100520.75;105829;1259;74428;-71
2023/05/13 09:42:56;;;;;;;2.40;2.10;;;;;;;28.99;28.26;100519.58;105768;1254;72236;-71
2023/05/13 09:45:23;;;;;;;2.50;1.90;;;;;;;29.65;27.39;100513.46;105801;1254;73282;-70
2023/05/13 09:47:53;;;;;;;6.20;2.10;;;;;;;30.22;26.72;100500.98;105632;1254;60555;-71
2023/05/13 09:50:20;;;;;;;4.90;2.40;;;;;;;30.79;25.91;100507.04;106037;1257;60428;-71
2023/05/13 09:52:47;;;;;;;2.40;2.00;;;;;;;31.20;25.21;100513.52;105571;1254;76151;-72
2023/05/13 09:55:14;;;;;;;2.70;2.00;;;;;;;31.46;24.53;100512.14;105689;1258;68975;-69
2023/05/13 09:57:42;;;;;;;2.40;1.90;;;;;;;31.66;24.35;100514.44;105772;1254;75335;-70
2023/05/13 10:00:09;;;;;;;4.50;2.10;;;;;;;31.97;24.30;100508.05;105653;1258;61287;-72
2023/05/13 10:02:47;;;;;;;1.90;1.80;;;;;;;32.36;23.99;100498.84;105682;1254;61055;-74
2023/05/13 10:05:13;;;;;;;4.00;2.00;;;;;;;32.84;23.74;100497.89;105699;1254;75469;-72
2023/05/13 10:07:40;;;;;;;2.30;1.80;;;;;;;33.25;23.20;100494.05;105635;1262;71644;-71
2023/05/13 10:10:08;;;;;;;3.80;1.90;;;;;;;33.36;22.79;100496.41;105782;1254;73550;-73
2023/05/13 10:12:35;;;;;;;2.20;2.00;;;;;;;33.36;22.82;100491.05;105942;1254;62188;-71
2023/05/13 10:15:04;;;;;;;3.30;2.10;;;;;;;33.20;22.78;100493.92;105915;1257;60498;-70
2023/05/13 10:17:30;;;;;;;6.00;2.00;;;;;;;33.01;22.98;100492.61;105892;1254;74681;-71
2023/05/13 10:19:57;;;;;;;2.50;2.00;;;;;;;33.03;23.10;100491.05;105854;1258;71095;-71
2023/05/13 10:22:29;;;;;;;2.20;1.90;;;;;;;33.13;23.00;100493.88;105670;1259;74684;-70
2023/05/13 10:24:57;;;;;;;3.60;1.70;;;;;;;33.40;22.67;100490.70;105827;1260;60526;-69
2023/05/13 10:27:29;;;;;;;3.00;1.80;;;;;;;33.69;22.60;100491.40;105773;1254;61631;-73
2023/05/13 10:29:56;;;;;;;1.80;1.70;;;;;;;34.04;22.58;100484.60;105843;1259;73757;-72
2023/05/13 10:32:24;;;;;;;1.70;1.60;;;;;;;34.34;22.20;100486.58;105770;1259;72601;-71
2023/05/13 10:35:11;;;;;;;2.80;2.00;;;;;;;34.55;22.01;100480.24;105656;1259;74759;-71
2023/05/13 10:38:16;;;;;;;2.80;2.00;;;;;;;34.80;21.80;100478.95;105813;1257;60392;-73
2023/05/13 10:40:58;;;;;;;2.40;2.00;;;;;;;34.76;21.69;100477.08;105710;1254;61177;-70
2023/05/13 10:43:29;;;;;;;;;;;;;;;34.48;21.69;100472.52;105880;1255;75732;-71
2023/05/13 10:46:00;;;;;;;3.40;1.90;;;;;;;34.42;21.89;100475.41;105719;1258;71441;-72
2023/05/13 10:48:57;;;;;;;2.00;1.80;;;;;;;34.60;22.01;100467.67;105763;1257;73552;-70
2023/05/13 10:51:23;;;;;;;2.20;1.90;;;;;;;35.24;21.81;100470.09;105778;1254;60517;-70
2023/05/13 10:53:55;;;;;;;3.40;2.30;;;;;;;35.92;21.60;100468.14;105518;1254;60425;-71
2023/05/13 10:56:23;;;;;;;3.40;2.60;;;;;;;36.47;21.30;100462.62;105656;1254;66137;-70
2023/05/13 10:59:01;;;;;;;2.30;2.10;;;;;;;37.01;21.10;100460.02;105794;1254;63586;-71
2023/05/13 11:01:34;;;;;;;2.30;2.00;;;;;;;37.61;20.89;100458.61;105379;1258;66345;-70
2023/05/13 11:04:03;;;;;;;3.00;1.80;;;;;;;38.15;20.52;100458.66;105831;1254;60813;-69
2023/05/13 11:06:38;;;;;;;3.90;2.10;;;;;;;38.57;20.19;100457.80;105778;1255;60452;-72
2023/05/13 11:09:06;;;;;;;3.00;1.90;;;;;;;38.86;20.18;100460.22;105832;1259;66994;-71
2023/05/13 11:11:34;;;;;;;2.70;2.20;;;;;;;38.84;20.67;100457.61;105839;1260;63937;-69
2023/05/13 11:14:06;;;;;;;2.70;2.00;;;;;;;38.48;20.24;100452.64;106022;1257;65115;-73
2023/05/13 11:16:35;;;;;;;4.60;2.20;;;;;;;37.69;20.47;100452.27;105804;1258;60370;-72
2023/05/13 11:19:02;;;;;;;4.10;2.20;;;;;;;36.79;20.82;100451.86;105786;1253;60501;-71
2023/05/13 11:21:29;;;;;;;2.40;2.20;;;;;;;36.12;21.34;100448.45;105802;1255;67547;-69
2023/05/13 11:24:04;;;;;;;3.30;2.50;;;;;;;35.62;21.50;100441.79;105824;1257;62495;-73